sensor_id;sensor_type;location;lat;lon;timestamp;temperature;humidity
20483;DHT22;10400;53.198;6.592;2023-04-09T00:01:47;9.80;85.00
20483;DHT22;10400;53.198;6.592;2023-04-09T00:04:12;9.80;86.40
20483;DHT22;10400;53.198;6.592;2023-04-09T00:06:38;9.80;79.70
20483;DHT22;10400;53.198;6.592;2023-04-09T00:09:03;9.80;83.30
20483;DHT22;10400;53.198;6.592;2023-04-09T00:11:29;9.80;84.60
20483;DHT22;10400;53.198;6.592;2023-04-09T00:13:56;9.80;70.30
20483;DHT22;10400;53.198;6.592;2023-04-09T00:16:22;9.80;83.50
20483;DHT22;10400;53.198;6.592;2023-04-09T00:18:48;9.70;73.20
20483;DHT22;10400;53.198;6.592;2023-04-09T00:21:13;9.70;80.30
20483;DHT22;10400;53.198;6.592;2023-04-09T00:23:41;9.70;73.70
20483;DHT22;10400;53.198;6.592;2023-04-09T00:26:06;9.70;83.00
20483;DHT22;10400;53.198;6.592;2023-04-09T00:28:32;9.70;83.50
20483;DHT22;10400;53.198;6.592;2023-04-09T00:30:58;9.70;81.30
20483;DHT22;10400;53.198;6.592;2023-04-09T00:33:23;9.70;82.50
20483;DHT22;10400;53.198;6.592;2023-04-09T00:35:50;9.70;85.50
20483;DHT22;10400;53.198;6.592;2023-04-09T00:38:15;9.70;91.50
20483;DHT22;10400;53.198;6.592;2023-04-09T00:40:41;9.70;90.10
20483;DHT22;10400;53.198;6.592;2023-04-09T00:43:07;9.70;92.60
20483;DHT22;10400;53.198;6.592;2023-04-09T00:45:32;9.70;90.10
20483;DHT22;10400;53.198;6.592;2023-04-09T00:47:58;9.70;94.40
20483;DHT22;10400;53.198;6.592;2023-04-09T00:50:24;9.60;91.40
20483;DHT22;10400;53.198;6.592;2023-04-09T00:52:49;9.70;91.70
20483;DHT22;10400;53.198;6.592;2023-04-09T00:55:17;9.70;91.90
20483;DHT22;10400;53.198;6.592;2023-04-09T00:57:43;9.60;92.00
20483;DHT22;10400;53.198;6.592;2023-04-09T01:00:09;9.60;92.20
20483;DHT22;10400;53.198;6.592;2023-04-09T01:02:36;9.60;93.90
20483;DHT22;10400;53.198;6.592;2023-04-09T01:05:02;9.60;94.40
20483;DHT22;10400;53.198;6.592;2023-04-09T01:12:47;9.60;93.00
20483;DHT22;10400;53.198;6.592;2023-04-09T01:15:28;9.70;90.40
20483;DHT22;10400;53.198;6.592;2023-04-09T01:18:09;9.70;91.90
20483;DHT22;10400;53.198;6.592;2023-04-09T01:28:14;9.70;86.60
20483;DHT22;10400;53.198;6.592;2023-04-09T01:30:47;9.70;87.20
20483;DHT22;10400;53.198;6.592;2023-04-09T01:33:13;9.70;79.30
20483;DHT22;10400;53.198;6.592;2023-04-09T01:35:42;9.60;80.70
20483;DHT22;10400;53.198;6.592;2023-04-09T01:38:10;9.60;90.10
20483;DHT22;10400;53.198;6.592;2023-04-09T01:40:36;9.60;88.30
20483;DHT22;10400;53.198;6.592;2023-04-09T01:43:02;9.60;89.20
20483;DHT22;10400;53.198;6.592;2023-04-09T01:45:28;9.60;92.50
20483;DHT22;10400;53.198;6.592;2023-04-09T01:47:54;9.60;92.00
20483;DHT22;10400;53.198;6.592;2023-04-09T01:50:21;9.60;95.20
20483;DHT22;10400;53.198;6.592;2023-04-09T01:52:47;9.60;92.00
20483;DHT22;10400;53.198;6.592;2023-04-09T01:55:13;9.60;91.50
20483;DHT22;10400;53.198;6.592;2023-04-09T01:57:38;9.60;93.30
20483;DHT22;10400;53.198;6.592;2023-04-09T02:00:06;9.60;89.50
20483;DHT22;10400;53.198;6.592;2023-04-09T02:03:23;9.60;91.60
20483;DHT22;10400;53.198;6.592;2023-04-09T02:05:31;9.60;90.80
20483;DHT22;10400;53.198;6.592;2023-04-09T02:08:02;9.60;92.80
20483;DHT22;10400;53.198;6.592;2023-04-09T02:10:30;9.60;91.60
20483;DHT22;10400;53.198;6.592;2023-04-09T02:12:57;9.60;90.00
20483;DHT22;10400;53.198;6.592;2023-04-09T02:15:25;9.60;89.30
20483;DHT22;10400;53.198;6.592;2023-04-09T02:17:52;9.70;91.40
20483;DHT22;10400;53.198;6.592;2023-04-09T02:20:18;9.70;89.10
20483;DHT22;10400;53.198;6.592;2023-04-09T02:22:45;9.70;83.40
20483;DHT22;10400;53.198;6.592;2023-04-09T02:25:11;9.70;79.60
20483;DHT22;10400;53.198;6.592;2023-04-09T02:27:36;9.70;80.50
20483;DHT22;10400;53.198;6.592;2023-04-09T02:30:02;9.60;85.50
20483;DHT22;10400;53.198;6.592;2023-04-09T02:32:28;9.60;90.90
20483;DHT22;10400;53.198;6.592;2023-04-09T02:34:54;9.60;91.00
20483;DHT22;10400;53.198;6.592;2023-04-09T02:37:19;9.70;90.70
20483;DHT22;10400;53.198;6.592;2023-04-09T02:39:45;9.60;90.40
20483;DHT22;10400;53.198;6.592;2023-04-09T02:42:10;9.60;92.90
20483;DHT22;10400;53.198;6.592;2023-04-09T02:44:36;9.60;93.20
20483;DHT22;10400;53.198;6.592;2023-04-09T02:47:02;9.50;91.80
20483;DHT22;10400;53.198;6.592;2023-04-09T02:49:27;9.50;96.30
20483;DHT22;10400;53.198;6.592;2023-04-09T02:51:53;9.50;98.70
20483;DHT22;10400;53.198;6.592;2023-04-09T02:54:19;9.50;98.00
20483;DHT22;10400;53.198;6.592;2023-04-09T02:56:45;9.50;99.90
20483;DHT22;10400;53.198;6.592;2023-04-09T02:59:10;9.50;99.70
20483;DHT22;10400;53.198;6.592;2023-04-09T03:01:36;9.50;99.90
20483;DHT22;10400;53.198;6.592;2023-04-09T03:04:01;9.50;99.90
20483;DHT22;10400;53.198;6.592;2023-04-09T03:06:27;9.40;99.90
20483;DHT22;10400;53.198;6.592;2023-04-09T03:08:53;9.40;99.90
20483;DHT22;10400;53.198;6.592;2023-04-09T03:11:18;9.40;99.90
20483;DHT22;10400;53.198;6.592;2023-04-09T03:13:44;9.30;99.90
20483;DHT22;10400;53.198;6.592;2023-04-09T03:16:10;9.30;99.90
20483;DHT22;10400;53.198;6.592;2023-04-09T03:18:35;9.40;99.90
20483;DHT22;10400;53.198;6.592;2023-04-09T03:21:05;9.30;99.90
20483;DHT22;10400;53.198;6.592;2023-04-09T03:23:32;9.20;99.90
20483;DHT22;10400;53.198;6.592;2023-04-09T03:26:03;9.30;99.90
20483;DHT22;10400;53.198;6.592;2023-04-09T03:28:29;9.20;99.90
20483;DHT22;10400;53.198;6.592;2023-04-09T03:30:55;9.20;99.90
20483;DHT22;10400;53.198;6.592;2023-04-09T03:33:21;9.20;99.90
20483;DHT22;10400;53.198;6.592;2023-04-09T03:35:47;9.20;99.90
20483;DHT22;10400;53.198;6.592;2023-04-09T03:38:12;9.30;99.90
20483;DHT22;10400;53.198;6.592;2023-04-09T03:40:38;9.20;99.90
20483;DHT22;10400;53.198;6.592;2023-04-09T03:43:04;9.20;99.90
20483;DHT22;10400;53.198;6.592;2023-04-09T03:45:30;9.20;99.90
20483;DHT22;10400;53.198;6.592;2023-04-09T03:47:55;9.20;99.90
20483;DHT22;10400;53.198;6.592;2023-04-09T03:50:21;9.20;99.90
20483;DHT22;10400;53.198;6.592;2023-04-09T03:52:46;9.20;99.90
20483;DHT22;10400;53.198;6.592;2023-04-09T03:55:12;9.20;99.90
20483;DHT22;10400;53.198;6.592;2023-04-09T03:57:38;9.20;99.90
20483;DHT22;10400;53.198;6.592;2023-04-09T04:00:04;9.20;99.90
20483;DHT22;10400;53.198;6.592;2023-04-09T04:02:30;9.20;99.90
20483;DHT22;10400;53.198;6.592;2023-04-09T04:05:00;9.20;99.90
20483;DHT22;10400;53.198;6.592;2023-04-09T04:07:26;9.20;99.90
20483;DHT22;10400;53.198;6.592;2023-04-09T04:09:52;9.20;99.90
20483;DHT22;10400;53.198;6.592;2023-04-09T04:12:17;9.20;99.90
20483;DHT22;10400;53.198;6.592;2023-04-09T04:14:43;9.10;99.90
20483;DHT22;10400;53.198;6.592;2023-04-09T04:17:09;9.20;99.90
20483;DHT22;10400;53.198;6.592;2023-04-09T04:19:36;9.10;99.90
20483;DHT22;10400;53.198;6.592;2023-04-09T04:22:01;9.10;99.90
20483;DHT22;10400;53.198;6.592;2023-04-09T04:24:27;9.10;99.90
20483;DHT22;10400;53.198;6.592;2023-04-09T04:26:52;9.10;99.90
20483;DHT22;10400;53.198;6.592;2023-04-09T04:29:18;9.10;99.90
20483;DHT22;10400;53.198;6.592;2023-04-09T04:31:44;9.10;99.90
20483;DHT22;10400;53.198;6.592;2023-04-09T04:34:09;9.20;99.90
20483;DHT22;10400;53.198;6.592;2023-04-09T04:36:36;9.20;99.90
20483;DHT22;10400;53.198;6.592;2023-04-09T04:39:02;9.10;99.90
20483;DHT22;10400;53.198;6.592;2023-04-09T04:41:28;9.10;99.90
20483;DHT22;10400;53.198;6.592;2023-04-09T04:43:54;9.10;99.90
20483;DHT22;10400;53.198;6.592;2023-04-09T04:46:19;9.10;99.90
20483;DHT22;10400;53.198;6.592;2023-04-09T04:48:45;9.10;99.90
20483;DHT22;10400;53.198;6.592;2023-04-09T04:51:11;9.10;99.90
20483;DHT22;10400;53.198;6.592;2023-04-09T04:53:36;9.10;99.90
20483;DHT22;10400;53.198;6.592;2023-04-09T04:56:02;9.10;99.90
20483;DHT22;10400;53.198;6.592;2023-04-09T04:58:28;9.20;99.90
20483;DHT22;10400;53.198;6.592;2023-04-09T05:00:54;9.20;99.90
20483;DHT22;10400;53.198;6.592;2023-04-09T05:03:20;9.20;99.90
20483;DHT22;10400;53.198;6.592;2023-04-09T05:05:45;9.20;99.90
20483;DHT22;10400;53.198;6.592;2023-04-09T05:08:14;9.20;99.90
20483;DHT22;10400;53.198;6.592;2023-04-09T05:10:41;9.10;99.90
20483;DHT22;10400;53.198;6.592;2023-04-09T05:13:08;9.20;99.90
20483;DHT22;10400;53.198;6.592;2023-04-09T05:15:37;9.20;99.90
20483;DHT22;10400;53.198;6.592;2023-04-09T05:18:03;9.20;99.90
20483;DHT22;10400;53.198;6.592;2023-04-09T05:20:29;9.30;99.90
20483;DHT22;10400;53.198;6.592;2023-04-09T05:22:54;9.30;99.90
20483;DHT22;10400;53.198;6.592;2023-04-09T05:25:20;9.30;99.90
20483;DHT22;10400;53.198;6.592;2023-04-09T05:27:46;9.30;99.90
20483;DHT22;10400;53.198;6.592;2023-04-09T05:30:11;9.30;99.90
20483;DHT22;10400;53.198;6.592;2023-04-09T05:32:37;9.30;99.90
20483;DHT22;10400;53.198;6.592;2023-04-09T05:35:03;9.30;99.90
20483;DHT22;10400;53.198;6.592;2023-04-09T05:37:29;9.30;99.90
20483;DHT22;10400;53.198;6.592;2023-04-09T05:39:55;9.30;99.90
20483;DHT22;10400;53.198;6.592;2023-04-09T05:42:21;9.30;99.90
20483;DHT22;10400;53.198;6.592;2023-04-09T05:44:47;9.30;99.90
20483;DHT22;10400;53.198;6.592;2023-04-09T05:47:12;9.30;99.90
20483;DHT22;10400;53.198;6.592;2023-04-09T05:49:38;9.30;99.90
20483;DHT22;10400;53.198;6.592;2023-04-09T05:52:04;9.30;99.90
20483;DHT22;10400;53.198;6.592;2023-04-09T05:54:30;9.20;99.90
20483;DHT22;10400;53.198;6.592;2023-04-09T05:56:56;9.20;99.90
20483;DHT22;10400;53.198;6.592;2023-04-09T05:59:21;9.20;99.90
20483;DHT22;10400;53.198;6.592;2023-04-09T06:01:47;9.20;99.90
20483;DHT22;10400;53.198;6.592;2023-04-09T06:04:12;9.30;99.90
20483;DHT22;10400;53.198;6.592;2023-04-09T06:06:38;9.30;99.90
20483;DHT22;10400;53.198;6.592;2023-04-09T06:09:04;9.30;99.90
20483;DHT22;10400;53.198;6.592;2023-04-09T06:11:30;9.20;99.90
20483;DHT22;10400;53.198;6.592;2023-04-09T06:13:55;9.30;99.90
20483;DHT22;10400;53.198;6.592;2023-04-09T06:16:21;9.20;99.90
20483;DHT22;10400;53.198;6.592;2023-04-09T06:18:47;9.20;99.90
20483;DHT22;10400;53.198;6.592;2023-04-09T06:21:15;9.20;90.10
20483;DHT22;10400;53.198;6.592;2023-04-09T06:23:41;9.10;77.90
20483;DHT22;10400;53.198;6.592;2023-04-09T06:26:07;9.10;60.90
20483;DHT22;10400;53.198;6.592;2023-04-09T06:28:32;9.20;54.40
20483;DHT22;10400;53.198;6.592;2023-04-09T06:30:58;9.20;56.30
20483;DHT22;10400;53.198;6.592;2023-04-09T06:33:24;9.20;59.50
20483;DHT22;10400;53.198;6.592;2023-04-09T06:35:50;9.20;68.00
20483;DHT22;10400;53.198;6.592;2023-04-09T06:38:16;9.20;67.10
20483;DHT22;10400;53.198;6.592;2023-04-09T06:40:42;9.30;66.80
20483;DHT22;10400;53.198;6.592;2023-04-09T06:43:08;9.40;58.90
20483;DHT22;10400;53.198;6.592;2023-04-09T06:45:34;9.40;45.00
20483;DHT22;10400;53.198;6.592;2023-04-09T06:48:00;9.40;26.50
20483;DHT22;10400;53.198;6.592;2023-04-09T06:50:26;9.40;25.60
20483;DHT22;10400;53.198;6.592;2023-04-09T06:52:52;9.40;37.20
20483;DHT22;10400;53.198;6.592;2023-04-09T06:55:18;9.40;24.20
20483;DHT22;10400;53.198;6.592;2023-04-09T06:57:44;9.40;25.70
20483;DHT22;10400;53.198;6.592;2023-04-09T07:00:10;9.50;29.90
20483;DHT22;10400;53.198;6.592;2023-04-09T07:02:36;9.50;27.10
20483;DHT22;10400;53.198;6.592;2023-04-09T07:05:05;9.40;25.90
20483;DHT22;10400;53.198;6.592;2023-04-09T07:07:31;9.50;42.30
20483;DHT22;10400;53.198;6.592;2023-04-09T07:09:56;9.50;45.80
20483;DHT22;10400;53.198;6.592;2023-04-09T07:12:26;9.60;42.30
20483;DHT22;10400;53.198;6.592;2023-04-09T07:14:52;9.60;25.40
20483;DHT22;10400;53.198;6.592;2023-04-09T07:17:18;9.60;26.40
20483;DHT22;10400;53.198;6.592;2023-04-09T07:19:44;9.70;16.80
20483;DHT22;10400;53.198;6.592;2023-04-09T07:22:09;9.60;1.00
20483;DHT22;10400;53.198;6.592;2023-04-09T07:24:35;9.60;1.00
20483;DHT22;10400;53.198;6.592;2023-04-09T07:27:04;9.70;1.00
20483;DHT22;10400;53.198;6.592;2023-04-09T07:29:29;9.70;1.00
20483;DHT22;10400;53.198;6.592;2023-04-09T07:31:55;9.70;1.00
20483;DHT22;10400;53.198;6.592;2023-04-09T07:34:21;9.70;1.00
20483;DHT22;10400;53.198;6.592;2023-04-09T07:36:46;9.70;1.00
20483;DHT22;10400;53.198;6.592;2023-04-09T07:39:12;9.70;1.00
20483;DHT22;10400;53.198;6.592;2023-04-09T07:41:38;9.90;2.50
20483;DHT22;10400;53.198;6.592;2023-04-09T07:44:05;10.00;1.00
20483;DHT22;10400;53.198;6.592;2023-04-09T07:46:30;10.10;1.00
20483;DHT22;10400;53.198;6.592;2023-04-09T07:48:56;10.20;1.00
20483;DHT22;10400;53.198;6.592;2023-04-09T07:51:21;10.30;1.00
20483;DHT22;10400;53.198;6.592;2023-04-09T07:53:47;10.20;1.00
20483;DHT22;10400;53.198;6.592;2023-04-09T07:56:13;10.30;1.00
20483;DHT22;10400;53.198;6.592;2023-04-09T07:58:38;10.30;1.00
20483;DHT22;10400;53.198;6.592;2023-04-09T08:01:04;10.30;1.00
20483;DHT22;10400;53.198;6.592;2023-04-09T08:03:30;10.40;1.00
20483;DHT22;10400;53.198;6.592;2023-04-09T08:05:55;10.40;1.00
20483;DHT22;10400;53.198;6.592;2023-04-09T08:08:21;10.40;1.00
20483;DHT22;10400;53.198;6.592;2023-04-09T08:10:46;10.40;1.00
20483;DHT22;10400;53.198;6.592;2023-04-09T08:13:12;10.50;1.00
20483;DHT22;10400;53.198;6.592;2023-04-09T08:15:38;10.60;1.00
20483;DHT22;10400;53.198;6.592;2023-04-09T08:18:03;10.70;1.00
20483;DHT22;10400;53.198;6.592;2023-04-09T08:20:29;10.60;1.00
20483;DHT22;10400;53.198;6.592;2023-04-09T08:22:57;10.70;1.00
20483;DHT22;10400;53.198;6.592;2023-04-09T08:25:25;10.80;1.00
20483;DHT22;10400;53.198;6.592;2023-04-09T08:27:50;10.80;1.00
20483;DHT22;10400;53.198;6.592;2023-04-09T08:30:16;10.90;1.00
20483;DHT22;10400;53.198;6.592;2023-04-09T08:32:42;10.80;1.00
20483;DHT22;10400;53.198;6.592;2023-04-09T08:35:09;10.80;1.00
20483;DHT22;10400;53.198;6.592;2023-04-09T08:37:34;10.80;1.00
20483;DHT22;10400;53.198;6.592;2023-04-09T08:40:00;10.80;1.00
20483;DHT22;10400;53.198;6.592;2023-04-09T08:42:26;10.90;1.00
20483;DHT22;10400;53.198;6.592;2023-04-09T08:44:51;10.90;1.00
20483;DHT22;10400;53.198;6.592;2023-04-09T08:47:19;11.00;1.00
20483;DHT22;10400;53.198;6.592;2023-04-09T08:49:45;11.00;1.00
20483;DHT22;10400;53.198;6.592;2023-04-09T08:52:12;11.10;1.00
20483;DHT22;10400;53.198;6.592;2023-04-09T08:54:40;11.10;1.00
20483;DHT22;10400;53.198;6.592;2023-04-09T08:57:06;11.30;1.00
20483;DHT22;10400;53.198;6.592;2023-04-09T08:59:32;11.30;1.00
20483;DHT22;10400;53.198;6.592;2023-04-09T09:02:10;11.40;1.00
20483;DHT22;10400;53.198;6.592;2023-04-09T09:04:44;11.40;1.00
20483;DHT22;10400;53.198;6.592;2023-04-09T09:07:10;11.40;1.00
20483;DHT22;10400;53.198;6.592;2023-04-09T09:09:58;11.40;1.00
20483;DHT22;10400;53.198;6.592;2023-04-09T09:12:35;11.50;1.00
20483;DHT22;10400;53.198;6.592;2023-04-09T09:15:01;11.70;1.00
20483;DHT22;10400;53.198;6.592;2023-04-09T09:17:27;11.80;1.00
20483;DHT22;10400;53.198;6.592;2023-04-09T09:19:53;11.90;1.00
20483;DHT22;10400;53.198;6.592;2023-04-09T09:22:19;12.00;1.00
20483;DHT22;10400;53.198;6.592;2023-04-09T09:24:50;12.00;1.00
20483;DHT22;10400;53.198;6.592;2023-04-09T09:27:35;12.00;1.00
20483;DHT22;10400;53.198;6.592;2023-04-09T09:30:04;12.20;1.00
20483;DHT22;10400;53.198;6.592;2023-04-09T09:32:30;12.10;1.00
20483;DHT22;10400;53.198;6.592;2023-04-09T09:35:06;12.10;1.00
20483;DHT22;10400;53.198;6.592;2023-04-09T09:37:32;12.20;1.00
20483;DHT22;10400;53.198;6.592;2023-04-09T09:39:59;12.30;1.00
20483;DHT22;10400;53.198;6.592;2023-04-09T09:42:25;12.30;99.90
20483;DHT22;10400;53.198;6.592;2023-04-09T09:44:54;12.30;99.90
20483;DHT22;10400;53.198;6.592;2023-04-09T09:47:21;12.40;1.00
20483;DHT22;10400;53.198;6.592;2023-04-09T09:49:48;12.30;1.00
20483;DHT22;10400;53.198;6.592;2023-04-09T09:52:23;12.30;1.00
20483;DHT22;10400;53.198;6.592;2023-04-09T09:54:51;12.40;1.00
20483;DHT22;10400;53.198;6.592;2023-04-09T09:57:19;12.50;99.90
20483;DHT22;10400;53.198;6.592;2023-04-09T09:59:57;12.40;99.90
20483;DHT22;10400;53.198;6.592;2023-04-09T10:02:26;12.70;99.90
20483;DHT22;10400;53.198;6.592;2023-04-09T10:04:56;12.80;99.90
20483;DHT22;10400;53.198;6.592;2023-04-09T10:07:25;12.90;99.90
20483;DHT22;10400;53.198;6.592;2023-04-09T10:09:53;13.00;99.90
20483;DHT22;10400;53.198;6.592;2023-04-09T10:12:21;13.10;99.90
20483;DHT22;10400;53.198;6.592;2023-04-09T10:14:54;13.00;99.90
20483;DHT22;10400;53.198;6.592;2023-04-09T10:17:20;13.10;99.90
20483;DHT22;10400;53.198;6.592;2023-04-09T10:19:55;13.10;99.90
20483;DHT22;10400;53.198;6.592;2023-04-09T10:22:25;13.20;99.90
20483;DHT22;10400;53.198;6.592;2023-04-09T10:24:52;13.30;23.10
20483;DHT22;10400;53.198;6.592;2023-04-09T10:27:18;13.40;1.00
20483;DHT22;10400;53.198;6.592;2023-04-09T10:29:45;13.30;99.90
20483;DHT22;10400;53.198;6.592;2023-04-09T10:32:12;13.10;20.80
20483;DHT22;10400;53.198;6.592;2023-04-09T10:34:42;13.10;99.90
20483;DHT22;10400;53.198;6.592;2023-04-09T10:37:29;13.40;99.90
20483;DHT22;10400;53.198;6.592;2023-04-09T10:39:55;13.80;88.70
20483;DHT22;10400;53.198;6.592;2023-04-09T10:42:27;14.00;1.00
20483;DHT22;10400;53.198;6.592;2023-04-09T10:45:23;14.20;99.90
20483;DHT22;10400;53.198;6.592;2023-04-09T10:47:50;14.20;1.00
20483;DHT22;10400;53.198;6.592;2023-04-09T10:50:24;14.10;1.00
20483;DHT22;10400;53.198;6.592;2023-04-09T10:52:54;14.10;1.00
20483;DHT22;10400;53.198;6.592;2023-04-09T10:57:55;14.30;1.00
20483;DHT22;10400;53.198;6.592;2023-04-09T11:00:21;14.20;1.00
20483;DHT22;10400;53.198;6.592;2023-04-09T11:05:34;14.00;1.00
20483;DHT22;10400;53.198;6.592;2023-04-09T11:08:10;14.10;1.00
20483;DHT22;10400;53.198;6.592;2023-04-09T11:10:37;14.10;99.90
20483;DHT22;10400;53.198;6.592;2023-04-09T11:13:04;14.10;1.00
20483;DHT22;10400;53.198;6.592;2023-04-09T11:15:33;14.00;1.00
20483;DHT22;10400;53.198;6.592;2023-04-09T11:17:59;13.90;88.00
20483;DHT22;10400;53.198;6.592;2023-04-09T11:20:26;14.10;99.90
20483;DHT22;10400;53.198;6.592;2023-04-09T11:22:53;14.30;99.90
20483;DHT22;10400;53.198;6.592;2023-04-09T11:25:24;14.40;95.50
20483;DHT22;10400;53.198;6.592;2023-04-09T11:27:50;14.40;1.00
20483;DHT22;10400;53.198;6.592;2023-04-09T11:30:16;14.40;1.00
20483;DHT22;10400;53.198;6.592;2023-04-09T11:32:42;14.80;1.00
20483;DHT22;10400;53.198;6.592;2023-04-09T11:35:19;15.00;1.00
20483;DHT22;10400;53.198;6.592;2023-04-09T11:37:45;15.10;1.00
20483;DHT22;10400;53.198;6.592;2023-04-09T11:40:15;15.20;70.10
20483;DHT22;10400;53.198;6.592;2023-04-09T11:42:42;15.10;1.00
20483;DHT22;10400;53.198;6.592;2023-04-09T11:45:09;15.00;1.00
20483;DHT22;10400;53.198;6.592;2023-04-09T11:47:36;15.00;1.00
20483;DHT22;10400;53.198;6.592;2023-04-09T11:50:04;14.70;1.00
20483;DHT22;10400;53.198;6.592;2023-04-09T11:52:30;14.60;99.90
20483;DHT22;10400;53.198;6.592;2023-04-09T11:55:03;14.60;99.90
20483;DHT22;10400;53.198;6.592;2023-04-09T11:57:47;14.70;1.00
20483;DHT22;10400;53.198;6.592;2023-04-09T12:00:14;14.60;58.90
20483;DHT22;10400;53.198;6.592;2023-04-09T12:02:46;14.50;99.90
20483;DHT22;10400;53.198;6.592;2023-04-09T12:05:23;14.60;99.90
20483;DHT22;10400;53.198;6.592;2023-04-09T12:07:50;14.90;99.90
20483;DHT22;10400;53.198;6.592;2023-04-09T12:10:15;15.10;99.90
20483;DHT22;10400;53.198;6.592;2023-04-09T12:12:44;15.00;1.00
20483;DHT22;10400;53.198;6.592;2023-04-09T12:15:23;15.20;99.90
20483;DHT22;10400;53.198;6.592;2023-04-09T12:17:50;15.50;99.90
20483;DHT22;10400;53.198;6.592;2023-04-09T12:20:27;15.50;99.90
20483;DHT22;10400;53.198;6.592;2023-04-09T12:22:53;15.70;1.00
20483;DHT22;10400;53.198;6.592;2023-04-09T12:25:19;15.30;1.00
20483;DHT22;10400;53.198;6.592;2023-04-09T12:27:45;15.20;99.90
20483;DHT22;10400;53.198;6.592;2023-04-09T12:30:11;15.50;99.90
20483;DHT22;10400;53.198;6.592;2023-04-09T12:32:36;15.60;1.00
20483;DHT22;10400;53.198;6.592;2023-04-09T12:35:03;15.60;99.90
20483;DHT22;10400;53.198;6.592;2023-04-09T12:37:29;15.70;91.10
20483;DHT22;10400;53.198;6.592;2023-04-09T12:39:54;15.80;1.00
20483;DHT22;10400;53.198;6.592;2023-04-09T12:42:20;15.90;92.80
20483;DHT22;10400;53.198;6.592;2023-04-09T12:44:46;15.80;81.30
20483;DHT22;10400;53.198;6.592;2023-04-09T12:47:12;15.50;1.00
20483;DHT22;10400;53.198;6.592;2023-04-09T12:49:38;15.50;99.90
20483;DHT22;10400;53.198;6.592;2023-04-09T12:52:04;15.60;99.90
20483;DHT22;10400;53.198;6.592;2023-04-09T12:54:30;15.70;99.90
20483;DHT22;10400;53.198;6.592;2023-04-09T12:56:55;15.80;1.00
20483;DHT22;10400;53.198;6.592;2023-04-09T12:59:21;16.00;1.00
20483;DHT22;10400;53.198;6.592;2023-04-09T13:01:47;15.90;99.90
20483;DHT22;10400;53.198;6.592;2023-04-09T13:04:12;16.20;99.90
20483;DHT22;10400;53.198;6.592;2023-04-09T13:06:38;16.40;99.90
20483;DHT22;10400;53.198;6.592;2023-04-09T13:09:04;16.30;1.00
20483;DHT22;10400;53.198;6.592;2023-04-09T13:11:30;15.90;99.90
20483;DHT22;10400;53.198;6.592;2023-04-09T13:13:56;15.80;99.90
20483;DHT22;10400;53.198;6.592;2023-04-09T13:16:22;16.00;99.90
20483;DHT22;10400;53.198;6.592;2023-04-09T13:18:47;16.00;15.40
20483;DHT22;10400;53.198;6.592;2023-04-09T13:21:13;16.00;1.00
20483;DHT22;10400;53.198;6.592;2023-04-09T13:23:43;15.90;1.00
20483;DHT22;10400;53.198;6.592;2023-04-09T13:26:09;15.80;1.00
20483;DHT22;10400;53.198;6.592;2023-04-09T13:28:34;15.50;1.00
20483;DHT22;10400;53.198;6.592;2023-04-09T13:31:01;15.30;1.00
20483;DHT22;10400;53.198;6.592;2023-04-09T13:33:27;15.30;1.00
20483;DHT22;10400;53.198;6.592;2023-04-09T13:35:53;15.30;1.00
20483;DHT22;10400;53.198;6.592;2023-04-09T13:38:18;15.50;1.00
20483;DHT22;10400;53.198;6.592;2023-04-09T13:40:44;15.80;1.00
20483;DHT22;10400;53.198;6.592;2023-04-09T13:43:10;16.00;1.00
20483;DHT22;10400;53.198;6.592;2023-04-09T13:45:35;16.00;1.00
20483;DHT22;10400;53.198;6.592;2023-04-09T13:48:01;15.90;1.00
20483;DHT22;10400;53.198;6.592;2023-04-09T13:50:27;15.90;1.00
20483;DHT22;10400;53.198;6.592;2023-04-09T13:52:53;15.80;1.00
20483;DHT22;10400;53.198;6.592;2023-04-09T13:55:18;15.80;1.00
20483;DHT22;10400;53.198;6.592;2023-04-09T13:57:44;15.80;1.00
20483;DHT22;10400;53.198;6.592;2023-04-09T14:00:10;16.00;1.00
20483;DHT22;10400;53.198;6.592;2023-04-09T14:02:35;16.10;1.00
20483;DHT22;10400;53.198;6.592;2023-04-09T14:05:01;16.20;1.00
20483;DHT22;10400;53.198;6.592;2023-04-09T14:07:28;16.10;1.00
20483;DHT22;10400;53.198;6.592;2023-04-09T14:09:53;16.00;1.00
20483;DHT22;10400;53.198;6.592;2023-04-09T14:12:19;16.00;1.00
20483;DHT22;10400;53.198;6.592;2023-04-09T14:14:44;16.10;1.00
20483;DHT22;10400;53.198;6.592;2023-04-09T14:17:10;16.10;1.00
20483;DHT22;10400;53.198;6.592;2023-04-09T14:19:36;16.20;1.00
20483;DHT22;10400;53.198;6.592;2023-04-09T14:22:02;16.10;1.00
20483;DHT22;10400;53.198;6.592;2023-04-09T14:24:27;16.20;1.00
20483;DHT22;10400;53.198;6.592;2023-04-09T14:26:53;16.30;1.00
20483;DHT22;10400;53.198;6.592;2023-04-09T14:29:19;16.20;1.00
20483;DHT22;10400;53.198;6.592;2023-04-09T14:31:45;16.30;1.00
20483;DHT22;10400;53.198;6.592;2023-04-09T14:34:11;16.30;1.00
20483;DHT22;10400;53.198;6.592;2023-04-09T14:36:37;16.30;1.00
20483;DHT22;10400;53.198;6.592;2023-04-09T14:39:02;16.40;1.00
20483;DHT22;10400;53.198;6.592;2023-04-09T14:41:28;16.50;1.00
20483;DHT22;10400;53.198;6.592;2023-04-09T14:43:54;16.20;1.00
20483;DHT22;10400;53.198;6.592;2023-04-09T14:46:19;16.20;1.00
20483;DHT22;10400;53.198;6.592;2023-04-09T14:48:46;16.20;99.90
20483;DHT22;10400;53.198;6.592;2023-04-09T14:51:12;16.30;99.90
20483;DHT22;10400;53.198;6.592;2023-04-09T14:53:37;16.20;1.00
20483;DHT22;10400;53.198;6.592;2023-04-09T14:56:03;16.20;1.00
20483;DHT22;10400;53.198;6.592;2023-04-09T14:58:29;16.30;99.90
20483;DHT22;10400;53.198;6.592;2023-04-09T15:00:55;16.40;99.90
20483;DHT22;10400;53.198;6.592;2023-04-09T15:03:21;16.30;99.90
20483;DHT22;10400;53.198;6.592;2023-04-09T15:05:47;16.30;99.90
20483;DHT22;10400;53.198;6.592;2023-04-09T15:08:12;16.40;99.90
20483;DHT22;10400;53.198;6.592;2023-04-09T15:10:38;16.30;99.90
20483;DHT22;10400;53.198;6.592;2023-04-09T15:13:04;16.20;99.90
20483;DHT22;10400;53.198;6.592;2023-04-09T15:15:30;16.00;99.90
20483;DHT22;10400;53.198;6.592;2023-04-09T15:17:55;15.80;99.90
20483;DHT22;10400;53.198;6.592;2023-04-09T15:20:21;15.70;99.90
20483;DHT22;10400;53.198;6.592;2023-04-09T15:22:47;15.70;99.90
20483;DHT22;10400;53.198;6.592;2023-04-09T15:25:12;15.60;99.90
20483;DHT22;10400;53.198;6.592;2023-04-09T15:27:38;15.70;99.90
20483;DHT22;10400;53.198;6.592;2023-04-09T15:30:04;15.80;99.90
20483;DHT22;10400;53.198;6.592;2023-04-09T15:32:30;16.10;99.90
20483;DHT22;10400;53.198;6.592;2023-04-09T15:34:56;16.30;99.90
20483;DHT22;10400;53.198;6.592;2023-04-09T15:37:23;16.40;99.90
20483;DHT22;10400;53.198;6.592;2023-04-09T15:39:48;16.30;99.90
20483;DHT22;10400;53.198;6.592;2023-04-09T15:42:14;16.40;99.90
20483;DHT22;10400;53.198;6.592;2023-04-09T15:44:45;16.40;99.90
20483;DHT22;10400;53.198;6.592;2023-04-09T15:47:10;16.50;99.90
20483;DHT22;10400;53.198;6.592;2023-04-09T15:49:36;16.50;99.90
20483;DHT22;10400;53.198;6.592;2023-04-09T15:52:02;16.30;99.90
20483;DHT22;10400;53.198;6.592;2023-04-09T15:54:27;16.20;99.90
20483;DHT22;10400;53.198;6.592;2023-04-09T15:56:53;16.20;99.90
20483;DHT22;10400;53.198;6.592;2023-04-09T15:59:19;16.10;99.90